Time;durP1;ratioP1;P1;durP2;ratioP2;P2;SDS_P1;SDS_P2;PMS_P1;PMS_P2;Temp;Humidity;BMP_temperature;BMP_pressure;BME280_temperature;BME280_humidity;BME280_pressure;Samples;Min_cycle;Max_cycle;Signal;HPM_P1;HPM_P2
2023/10/27 00:01:04;;;;;;;1.92;0.93;;;25.30;99.90;;;;;;4985831;23;20051;-56
2023/10/27 00:03:30;;;;;;;2.22;1.20;;;25.30;99.90;;;;;;4971236;28;20100;-57
2023/10/27 00:05:55;;;;;;;2.22;1.20;;;25.30;99.90;;;;;;4955906;28;20023;-56
2023/10/27 00:08:21;;;;;;;2.40;1.05;;;25.30;99.90;;;;;;4935862;29;20114;-57
2023/10/27 00:10:47;;;;;;;2.40;1.00;;;25.30;99.90;;;;;;4953038;29;20035;-59
2023/10/27 00:13:13;;;;;;;1.75;1.23;;;25.30;99.90;;;;;;4955676;28;20387;-57
2023/10/27 00:15:38;;;;;;;2.40;1.05;;;25.30;99.90;;;;;;4953838;28;20035;-57
2023/10/27 00:18:04;;;;;;;4.00;1.50;;;25.20;99.90;;;;;;4936812;29;20031;-57
2023/10/27 00:20:31;;;;;;;2.75;1.30;;;25.20;99.90;;;;;;4954193;29;20027;-57
2023/10/27 00:22:56;;;;;;;1.63;1.35;;;25.20;99.90;;;;;;4937658;29;20483;-58
2023/10/27 00:25:23;;;;;;;3.50;1.48;;;25.20;99.90;;;;;;4953922;28;20141;-58
2023/10/27 00:27:49;;;;;;;3.58;1.50;;;25.20;99.90;;;;;;4955943;28;20050;-58
2023/10/27 00:30:15;;;;;;;2.38;1.23;;;25.20;99.90;;;;;;4952611;29;20097;-59
2023/10/27 00:32:41;;;;;;;2.33;1.30;;;25.20;99.90;;;;;;4952288;29;20031;-57
2023/10/27 00:35:07;;;;;;;2.28;1.15;;;25.20;99.90;;;;;;4954348;28;20043;-57
2023/10/27 00:37:34;;;;;;;3.90;1.30;;;25.20;99.90;;;;;;4954561;28;20023;-56
2023/10/27 00:40:01;;;;;;;2.30;1.45;;;25.20;99.90;;;;;;4953204;29;20035;-57
2023/10/27 00:42:27;;;;;;;2.35;1.20;;;25.20;99.90;;;;;;4952798;29;20074;-57
2023/10/27 00:44:53;;;;;;;3.05;1.10;;;25.10;99.90;;;;;;4953963;28;20054;-57
2023/10/27 00:47:19;;;;;;;1.85;1.13;;;25.10;99.90;;;;;;4953503;29;20509;-57
2023/10/27 00:49:45;;;;;;;2.63;1.60;;;25.10;99.90;;;;;;4953319;29;20031;-56
2023/10/27 00:52:14;;;;;;;2.65;1.15;;;25.10;99.90;;;;;;4954066;29;20118;-56
2023/10/27 00:54:42;;;;;;;2.97;1.30;;;25.10;99.90;;;;;;4937652;29;20065;-57
2023/10/27 00:57:09;;;;;;;2.22;1.10;;;25.10;99.90;;;;;;4935487;29;20498;-57
2023/10/27 00:59:36;;;;;;;1.85;1.10;;;25.10;99.90;;;;;;4919180;29;20043;-56
2023/10/27 01:02:02;;;;;;;2.53;1.40;;;25.10;99.90;;;;;;4987950;23;20133;-51
2023/10/27 01:04:29;;;;;;;1.65;1.13;;;25.10;99.90;;;;;;4955989;28;20030;-51
2023/10/27 01:06:56;;;;;;;3.25;1.42;;;25.10;99.90;;;;;;4972749;28;20041;-51
2023/10/27 01:09:22;;;;;;;2.83;1.50;;;25.00;99.90;;;;;;4971773;28;20033;-51
2023/10/27 01:11:49;;;;;;;3.28;1.33;;;25.00;99.90;;;;;;4973731;28;20510;-51
2023/10/27 01:14:15;;;;;;;2.95;1.45;;;25.00;99.90;;;;;;4972550;28;20025;-51
2023/10/27 01:16:40;;;;;;;2.25;1.23;;;25.10;99.90;;;;;;4954898;28;20035;-51
2023/10/27 01:19:06;;;;;;;1.85;1.40;;;25.00;99.90;;;;;;4971909;28;20124;-51
2023/10/27 01:21:32;;;;;;;2.65;1.58;;;25.00;99.90;;;;;;4973493;28;20023;-52
2023/10/27 01:23:58;;;;;;;2.83;1.70;;;25.00;99.90;;;;;;4955254;28;20030;-51
2023/10/27 01:26:23;;;;;;;2.88;1.40;;;25.00;99.90;;;;;;4971529;28;20490;-51
2023/10/27 01:28:49;;;;;;;2.55;1.30;;;25.10;99.90;;;;;;4971695;28;20390;-52
2023/10/27 01:31:15;;;;;;;1.90;1.35;;;25.00;99.90;;;;;;4973600;28;20045;-52
2023/10/27 01:33:41;;;;;;;1.80;1.23;;;25.00;99.90;;;;;;4972290;28;20046;-52
2023/10/27 01:36:07;;;;;;;1.67;1.30;;;25.10;99.90;;;;;;4970955;28;20033;-52
2023/10/27 01:38:33;;;;;;;3.25;1.40;;;25.00;99.90;;;;;;4973090;28;20015;-52
2023/10/27 01:40:59;;;;;;;2.33;1.35;;;25.00;99.90;;;;;;4954999;28;20034;-52
2023/10/27 01:43:26;;;;;;;2.15;1.35;;;25.00;99.90;;;;;;4972130;28;20480;-52
2023/10/27 01:45:51;;;;;;;2.60;1.38;;;25.00;99.90;;;;;;4972769;28;20026;-51
2023/10/27 01:48:17;;;;;;;2.78;1.20;;;25.00;99.90;;;;;;4973600;28;20027;-51
2023/10/27 01:50:43;;;;;;;3.88;1.50;;;25.00;99.90;;;;;;4971872;28;20069;-51
2023/10/27 01:53:09;;;;;;;1.90;1.40;;;25.10;99.90;;;;;;4971779;28;20098;-52
2023/10/27 01:55:35;;;;;;;4.03;1.38;;;25.00;99.90;;;;;;4953624;28;20038;-52
2023/10/27 01:58:02;;;;;;;3.53;1.55;;;25.00;99.90;;;;;;4974696;28;20115;-52
2023/10/27 02:00:28;;;;;;;1.83;1.23;;;25.00;99.90;;;;;;4975797;28;20023;-51
2023/10/27 02:02:53;;;;;;;3.13;1.55;;;25.00;99.90;;;;;;4975323;28;20364;-52
2023/10/27 02:05:19;;;;;;;2.42;1.20;;;25.00;99.90;;;;;;4976947;28;20097;-52
2023/10/27 02:07:45;;;;;;;1.35;1.25;;;25.10;99.90;;;;;;4975971;28;20034;-52
2023/10/27 02:10:11;;;;;;;2.17;1.50;;;25.00;99.90;;;;;;4975296;28;20019;-51
2023/10/27 02:12:37;;;;;;;2.85;1.50;;;25.00;99.90;;;;;;4974279;28;20098;-52
2023/10/27 02:15:03;;;;;;;3.70;1.60;;;25.00;99.90;;;;;;4976855;28;20103;-52
2023/10/27 02:17:29;;;;;;;3.65;1.60;;;25.10;99.90;;;;;;4975884;28;20434;-51
2023/10/27 02:19:55;;;;;;;2.78;1.45;;;25.00;99.90;;;;;;4974416;28;20482;-51
2023/10/27 02:22:22;;;;;;;2.55;1.63;;;25.00;99.90;;;;;;4975782;28;20026;-51
2023/10/27 02:24:47;;;;;;;2.00;1.45;;;25.00;99.90;;;;;;4976766;28;20049;-51
2023/10/27 02:27:13;;;;;;;2.17;1.50;;;25.00;99.90;;;;;;4975013;28;20032;-52
2023/10/27 02:29:39;;;;;;;2.25;1.63;;;25.00;99.90;;;;;;4974153;28;20398;-51
2023/10/27 02:32:05;;;;;;;2.55;1.48;;;25.00;99.90;;;;;;4976185;28;20105;-51
2023/10/27 02:34:31;;;;;;;2.38;1.20;;;25.00;99.90;;;;;;4977293;28;20113;-51
2023/10/27 02:36:56;;;;;;;2.03;1.30;;;25.00;99.90;;;;;;4975400;28;20120;-51
2023/10/27 02:39:22;;;;;;;2.92;1.92;;;25.00;99.90;;;;;;4974969;28;20050;-52
2023/10/27 02:41:48;;;;;;;1.60;1.27;;;25.00;99.90;;;;;;4977795;28;20030;-52
2023/10/27 02:44:14;;;;;;;2.88;1.50;;;25.00;99.90;;;;;;4975027;28;20034;-52
2023/10/27 02:46:41;;;;;;;2.72;1.50;;;25.00;99.90;;;;;;4974767;28;20483;-52
2023/10/27 02:49:07;;;;;;;3.88;1.50;;;25.00;99.90;;;;;;4974049;28;20019;-52
2023/10/27 02:51:33;;;;;;;2.20;1.70;;;25.00;99.90;;;;;;4978145;28;20038;-52
2023/10/27 02:53:59;;;;;;;2.67;1.80;;;25.00;99.90;;;;;;4974641;28;20027;-51
2023/10/27 02:56:24;;;;;;;2.78;1.60;;;25.00;99.90;;;;;;4974354;28;20019;-52
2023/10/27 02:58:51;;;;;;;2.97;1.75;;;25.00;99.90;;;;;;4974942;28;20033;-53
2023/10/27 03:01:17;;;;;;;2.03;1.50;;;25.00;99.90;;;;;;4977072;28;20149;-52
2023/10/27 03:03:44;;;;;;;2.67;1.48;;;24.90;99.90;;;;;;4974332;28;20031;-52
2023/10/27 03:06:11;;;;;;;2.83;1.50;;;25.00;99.90;;;;;;4973268;28;20434;-52
2023/10/27 03:08:38;;;;;;;2.55;1.60;;;25.00;99.90;;;;;;4975981;28;20057;-52
2023/10/27 03:11:04;;;;;;;2.72;1.73;;;24.90;99.90;;;;;;4975003;28;20045;-52
2023/10/27 03:13:31;;;;;;;2.85;1.63;;;24.90;99.90;;;;;;4974224;28;20053;-52
2023/10/27 03:15:58;;;;;;;2.50;1.48;;;24.90;99.90;;;;;;4974467;28;20122;-52
2023/10/27 03:18:25;;;;;;;2.92;1.58;;;24.90;99.90;;;;;;4976154;28;20035;-52
2023/10/27 03:21:01;;;;;;;2.00;1.80;;;24.90;99.90;;;;;;4974011;28;20081;-51
2023/10/27 03:23:27;;;;;;;2.60;1.63;;;24.90;99.90;;;;;;4973803;28;20033;-52
2023/10/27 03:25:53;;;;;;;2.30;1.83;;;24.90;99.90;;;;;;4973759;28;20026;-51
2023/10/27 03:28:20;;;;;;;4.15;1.98;;;24.90;99.90;;;;;;4976433;28;20035;-52
2023/10/27 03:30:48;;;;;;;8.57;2.13;;;24.90;99.90;;;;;;4973633;28;20438;-51
2023/10/27 03:33:14;;;;;;;2.58;1.75;;;24.90;99.90;;;;;;4973512;28;20019;-52
2023/10/27 03:35:42;;;;;;;2.40;1.67;;;24.90;99.90;;;;;;4974864;28;20030;-52
2023/10/27 03:38:09;;;;;;;2.13;1.70;;;24.80;99.90;;;;;;4974309;28;20019;-51
2023/10/27 03:40:40;;;;;;;3.05;1.60;;;24.90;99.90;;;;;;4973691;28;20049;-51
2023/10/27 03:43:06;;;;;;;2.38;1.80;;;24.80;99.90;;;;;;4973224;28;20035;-52
2023/10/27 03:45:35;;;;;;;2.70;1.67;;;24.80;99.90;;;;;;4975372;28;20070;-52
2023/10/27 03:48:01;;;;;;;2.25;1.50;;;24.80;99.90;;;;;;4979084;28;20514;-52
2023/10/27 03:50:27;;;;;;;3.60;2.10;;;24.80;99.90;;;;;;4993729;28;20475;-53
2023/10/27 03:52:53;;;;;;;2.63;1.75;;;24.80;99.90;;;;;;4976057;28;20026;-52
2023/10/27 03:55:19;;;;;;;2.30;1.85;;;24.80;99.90;;;;;;4976247;28;20788;-52
2023/10/27 03:57:45;;;;;;;3.08;2.05;;;24.80;99.90;;;;;;4993097;28;20093;-52
2023/10/27 04:00:11;;;;;;;3.33;1.63;;;24.80;99.90;;;;;;4992586;28;20026;-52
2023/10/27 04:02:37;;;;;;;2.70;1.90;;;24.80;99.90;;;;;;4993077;28;20054;-52
2023/10/27 04:05:05;;;;;;;3.97;2.25;;;24.80;99.90;;;;;;4976000;28;20522;-52
2023/10/27 04:07:31;;;;;;;2.70;1.65;;;24.80;99.90;;;;;;4992685;28;20038;-52
2023/10/27 04:09:57;;;;;;;2.60;1.98;;;24.80;99.90;;;;;;4993636;28;20066;-51
2023/10/27 04:12:22;;;;;;;3.53;2.10;;;24.80;99.90;;;;;;4993346;28;20096;-51
2023/10/27 04:14:48;;;;;;;3.75;1.85;;;24.80;99.90;;;;;;4993413;28;20029;-52
2023/10/27 04:17:14;;;;;;;3.50;2.35;;;24.80;99.90;;;;;;4993321;28;20030;-52
2023/10/27 04:19:43;;;;;;;2.90;2.08;;;24.80;99.90;;;;;;4993376;28;20026;-52
2023/10/27 04:22:09;;;;;;;3.33;2.17;;;24.80;99.90;;;;;;4975527;28;20108;-52
2023/10/27 04:24:35;;;;;;;3.55;2.15;;;24.80;99.90;;;;;;4993342;28;20023;-51
2023/10/27 04:27:00;;;;;;;2.55;1.95;;;24.80;99.90;;;;;;4993354;28;20027;-52
2023/10/27 04:29:26;;;;;;;3.95;2.30;;;24.70;99.90;;;;;;4993398;28;20030;-52
2023/10/27 04:31:52;;;;;;;5.43;2.30;;;24.70;99.90;;;;;;4993066;28;20440;-52
2023/10/27 04:34:18;;;;;;;6.45;2.40;;;24.70;99.90;;;;;;4975539;28;20022;-52
2023/10/27 04:36:44;;;;;;;5.07;2.08;;;24.70;99.90;;;;;;4975540;28;20026;-52
2023/10/27 04:39:10;;;;;;;3.63;2.00;;;24.70;99.90;;;;;;4975895;28;20105;-53
2023/10/27 04:41:37;;;;;;;4.15;2.47;;;24.80;99.90;;;;;;4992995;28;20487;-53
2023/10/27 04:44:03;;;;;;;5.07;2.70;;;24.70;99.90;;;;;;4992997;28;20030;-52
2023/10/27 04:46:29;;;;;;;4.38;2.38;;;24.70;99.90;;;;;;4975784;28;20414;-53
2023/10/27 04:48:57;;;;;;;3.33;2.35;;;24.70;99.90;;;;;;4992944;28;20018;-52
2023/10/27 04:51:24;;;;;;;6.97;2.78;;;24.80;99.90;;;;;;4992913;28;20038;-53
2023/10/27 04:53:50;;;;;;;3.65;2.28;;;24.70;99.90;;;;;;4993028;28;20422;-52
2023/10/27 04:56:16;;;;;;;4.22;2.72;;;24.70;99.90;;;;;;4992701;28;20037;-53
2023/10/27 04:58:44;;;;;;;5.55;3.25;;;24.70;99.90;;;;;;4992950;28;20019;-53
2023/10/27 05:01:10;;;;;;;5.80;3.22;;;24.70;99.90;;;;;;4987673;28;20561;-52
2023/10/27 05:03:37;;;;;;;5.13;2.57;;;24.70;99.90;;;;;;4973337;28;20041;-53
2023/10/27 05:06:12;;;;;;;5.63;2.88;;;24.70;99.90;;;;;;4973629;28;20113;-52
2023/10/27 05:08:38;;;;;;;7.55;2.90;;;24.70;99.90;;;;;;4973292;28;20067;-53
2023/10/27 05:11:04;;;;;;;6.65;2.83;;;24.70;99.90;;;;;;4972511;28;20043;-53
2023/10/27 05:13:30;;;;;;;5.28;2.90;;;24.70;99.90;;;;;;4973432;28;20034;-52
2023/10/27 05:15:56;;;;;;;4.53;2.58;;;24.70;99.90;;;;;;4973289;28;20042;-52
2023/10/27 05:18:22;;;;;;;5.18;2.85;;;24.70;99.90;;;;;;4973256;28;20027;-52
2023/10/27 05:20:47;;;;;;;6.00;2.58;;;24.70;99.90;;;;;;4973165;28;20026;-52
2023/10/27 05:23:13;;;;;;;4.88;2.85;;;24.70;99.90;;;;;;4972977;28;20026;-53
2023/10/27 05:25:40;;;;;;;6.18;2.80;;;24.70;99.90;;;;;;4973128;28;20030;-51
2023/10/27 05:28:07;;;;;;;6.53;2.90;;;24.70;99.90;;;;;;4973712;28;20030;-52
2023/10/27 05:30:37;;;;;;;7.45;2.75;;;24.70;99.90;;;;;;4973266;28;20311;-52
2023/10/27 05:33:03;;;;;;;8.52;3.00;;;24.70;99.90;;;;;;4974348;28;20027;-52
2023/10/27 05:35:29;;;;;;;5.25;2.45;;;24.70;99.90;;;;;;4977056;28;20019;-52
2023/10/27 05:37:55;;;;;;;6.57;2.70;;;24.70;99.90;;;;;;4976721;28;20053;-52
2023/10/27 05:40:22;;;;;;;6.35;3.30;;;24.70;99.90;;;;;;4959309;28;20027;-52
2023/10/27 05:42:48;;;;;;;4.40;2.42;;;24.70;99.90;;;;;;4976828;28;20027;-52
2023/10/27 05:45:14;;;;;;;6.18;2.90;;;24.70;99.90;;;;;;4976419;28;20049;-52
2023/10/27 05:47:40;;;;;;;7.70;3.15;;;24.70;99.90;;;;;;4976573;28;20034;-52
2023/10/27 05:50:08;;;;;;;5.60;2.97;;;24.70;99.90;;;;;;4976383;28;20019;-53
2023/10/27 05:52:34;;;;;;;6.82;2.75;;;24.70;99.90;;;;;;4976809;28;20030;-52
2023/10/27 05:55:00;;;;;;;5.43;2.70;;;24.70;99.90;;;;;;4976524;28;20490;-52
2023/10/27 05:57:26;;;;;;;7.55;2.90;;;24.70;99.90;;;;;;4976588;28;20439;-53
2023/10/27 05:59:52;;;;;;;5.93;2.78;;;24.70;99.90;;;;;;4976462;28;20023;-53
2023/10/27 06:02:18;;;;;;;7.32;3.03;;;24.70;99.90;;;;;;4976380;28;20043;-53
2023/10/27 06:04:44;;;;;;;6.03;3.15;;;24.70;99.90;;;;;;4976278;28;20046;-53
2023/10/27 06:07:10;;;;;;;5.57;2.88;;;24.70;99.90;;;;;;4976263;28;20471;-53
2023/10/27 06:09:36;;;;;;;7.57;2.55;;;24.70;99.90;;;;;;4976565;28;20098;-53
2023/10/27 06:12:02;;;;;;;4.88;2.70;;;24.70;99.90;;;;;;4958808;28;20035;-53
2023/10/27 06:14:28;;;;;;;6.07;2.70;;;24.70;99.90;;;;;;4976125;28;20034;-52
2023/10/27 06:16:54;;;;;;;6.15;2.83;;;24.60;99.90;;;;;;4976125;28;20536;-52
2023/10/27 06:19:20;;;;;;;6.05;2.67;;;24.70;99.90;;;;;;4975961;28;20027;-52
2023/10/27 06:21:47;;;;;;;5.20;2.80;;;24.60;99.90;;;;;;4976035;28;20029;-52
2023/10/27 06:24:13;;;;;;;6.32;3.05;;;24.60;99.90;;;;;;4976016;28;20023;-53
2023/10/27 06:26:39;;;;;;;7.53;2.58;;;24.60;99.90;;;;;;4975932;28;20041;-53
2023/10/27 06:29:05;;;;;;;4.00;2.95;;;24.60;99.90;;;;;;4976106;28;20027;-53
2023/10/27 06:31:31;;;;;;;3.58;2.58;;;24.60;99.90;;;;;;4975750;28;20035;-53
2023/10/27 06:33:57;;;;;;;4.53;2.60;;;24.60;99.90;;;;;;4975874;28;20019;-53
2023/10/27 06:36:23;;;;;;;7.60;3.08;;;24.60;99.90;;;;;;4975800;28;20428;-53
2023/10/27 06:38:48;;;;;;;7.78;2.25;;;24.60;99.90;;;;;;4975715;28;20427;-53
2023/10/27 06:41:14;;;;;;;5.30;2.42;;;24.60;99.90;;;;;;4975714;28;20041;-53
2023/10/27 06:43:40;;;;;;;4.10;2.50;;;24.60;99.90;;;;;;4975249;28;20043;-54
2023/10/27 06:46:05;;;;;;;6.88;2.03;;;24.60;99.90;;;;;;4975876;28;20046;-53
2023/10/27 06:48:31;;;;;;;4.57;2.17;;;24.50;99.90;;;;;;4975491;28;20383;-52
2023/10/27 06:50:57;;;;;;;3.65;2.10;;;24.60;99.90;;;;;;4975367;28;20073;-52
2023/10/27 06:53:23;;;;;;;4.63;2.40;;;24.50;99.90;;;;;;4975439;28;20023;-52
2023/10/27 06:55:48;;;;;;;4.10;2.47;;;24.50;99.90;;;;;;4975272;28;20065;-53
2023/10/27 06:58:14;;;;;;;4.68;2.25;;;24.50;99.90;;;;;;4975303;28;20387;-54
2023/10/27 07:00:40;;;;;;;3.80;2.25;;;24.50;99.90;;;;;;4975252;28;20102;-54
2023/10/27 07:03:06;;;;;;;4.45;2.30;;;24.50;99.90;;;;;;4975446;28;20038;-54
2023/10/27 07:05:31;;;;;;;5.13;2.38;;;24.50;99.90;;;;;;4975701;28;20037;-52
2023/10/27 07:07:57;;;;;;;3.30;1.88;;;24.50;99.90;;;;;;4975156;28;20030;-52
2023/10/27 07:10:23;;;;;;;2.55;1.67;;;24.50;99.90;;;;;;4975014;28;20019;-52
2023/10/27 07:12:49;;;;;;;3.65;2.50;;;24.50;99.90;;;;;;4975096;28;20027;-53
2023/10/27 07:15:15;;;;;;;2.92;1.63;;;24.50;99.90;;;;;;4974978;28;20033;-52
2023/10/27 07:17:41;;;;;;;3.42;1.70;;;24.50;99.90;;;;;;4974945;28;20058;-53
2023/10/27 07:20:08;;;;;;;3.45;1.80;;;24.50;99.90;;;;;;4974980;28;20057;-53
2023/10/27 07:22:36;;;;;;;3.13;1.57;;;24.40;99.90;;;;;;4975425;28;21015;-53
2023/10/27 07:25:05;;;;;;;6.55;2.22;;;24.50;99.90;;;;;;4974918;28;20038;-53
2023/10/27 07:27:31;;;;;;;3.17;1.63;;;24.40;99.90;;;;;;4974787;28;20038;-53
2023/10/27 07:29:57;;;;;;;3.80;1.67;;;24.40;99.90;;;;;;4974838;28;20106;-55
2023/10/27 07:32:23;;;;;;;3.13;1.50;;;24.40;99.90;;;;;;4974712;28;20131;-53
2023/10/27 07:34:49;;;;;;;3.70;1.70;;;24.50;99.90;;;;;;4974828;28;20030;-53
2023/10/27 07:37:17;;;;;;;5.83;1.60;;;24.40;99.90;;;;;;4974792;28;20031;-53
2023/10/27 07:39:42;;;;;;;2.40;1.48;;;24.40;99.90;;;;;;4974614;28;20257;-52
2023/10/27 07:42:09;;;;;;;3.05;1.42;;;24.40;99.90;;;;;;4974831;28;20031;-52
2023/10/27 07:44:35;;;;;;;2.70;1.73;;;24.40;99.90;;;;;;4974566;28;20027;-52
2023/10/27 07:47:01;;;;;;;2.58;1.48;;;24.40;99.90;;;;;;4974387;28;20467;-52
2023/10/27 07:49:26;;;;;;;3.00;1.10;;;24.40;99.90;;;;;;4974389;28;20091;-52
2023/10/27 07:51:52;;;;;;;3.35;1.52;;;24.40;99.90;;;;;;4974322;28;20045;-52
2023/10/27 07:54:18;;;;;;;2.30;1.27;;;24.40;99.90;;;;;;4974304;28;20022;-52
2023/10/27 07:56:44;;;;;;;4.35;1.40;;;24.40;99.90;;;;;;4973586;28;20037;-52
2023/10/27 07:59:10;;;;;;;3.30;1.48;;;24.40;99.90;;;;;;4974483;28;20497;-52
2023/10/27 08:01:35;;;;;;;3.60;1.80;;;24.40;99.90;;;;;;4973981;28;20518;-52
2023/10/27 08:04:03;;;;;;;4.45;1.60;;;24.40;99.90;;;;;;4974108;28;20023;-52
2023/10/27 08:06:29;;;;;;;2.60;1.30;;;24.40;99.90;;;;;;4957133;28;20023;-51
2023/10/27 08:08:55;;;;;;;2.97;1.20;;;24.40;99.90;;;;;;4973951;28;20023;-52
2023/10/27 08:11:21;;;;;;;3.08;1.50;;;24.40;99.90;;;;;;4973919;28;20435;-52
2023/10/27 08:13:47;;;;;;;2.92;1.58;;;24.40;99.90;;;;;;4974004;28;20026;-52
2023/10/27 08:16:13;;;;;;;2.20;1.20;;;24.40;99.90;;;;;;4973683;28;20383;-52
2023/10/27 08:18:39;;;;;;;2.55;1.30;;;24.40;99.90;;;;;;4974095;28;20026;-52
2023/10/27 08:21:05;;;;;;;2.45;0.95;;;24.40;99.90;;;;;;4973721;28;20030;-52
2023/10/27 08:23:31;;;;;;;4.28;1.45;;;24.40;99.90;;;;;;4973741;28;20031;-52
2023/10/27 08:25:57;;;;;;;2.70;1.52;;;24.40;99.90;;;;;;4973798;28;20034;-52
2023/10/27 08:28:22;;;;;;;5.22;1.23;;;24.40;99.90;;;;;;4973540;28;20034;-52
2023/10/27 08:30:48;;;;;;;2.58;1.20;;;24.40;99.90;;;;;;4973500;28;20035;-52
2023/10/27 08:33:14;;;;;;;2.70;1.27;;;24.40;99.90;;;;;;4973569;28;20019;-53
2023/10/27 08:35:40;;;;;;;3.90;1.27;;;24.40;99.90;;;;;;4973854;28;20039;-53
2023/10/27 08:38:06;;;;;;;3.10;1.77;;;24.40;99.90;;;;;;4973663;28;20502;-52
2023/10/27 08:40:33;;;;;;;1.95;1.10;;;24.40;99.90;;;;;;4973620;28;20026;-52
2023/10/27 08:42:59;;;;;;;2.72;1.30;;;24.40;99.90;;;;;;4973448;28;20031;-53
2023/10/27 08:45:27;;;;;;;1.85;1.10;;;24.40;99.90;;;;;;4973557;28;20023;-52
2023/10/27 08:47:53;;;;;;;5.90;1.42;;;24.40;99.90;;;;;;4973516;28;20015;-52
2023/10/27 08:50:19;;;;;;;2.65;1.20;;;24.40;99.90;;;;;;4973504;28;20027;-51
2023/10/27 08:52:46;;;;;;;2.33;1.00;;;24.40;99.90;;;;;;4973396;28;20093;-51
2023/10/27 08:55:12;;;;;;;2.23;1.07;;;24.40;99.90;;;;;;4973441;28;20383;-51
2023/10/27 08:57:38;;;;;;;2.85;1.20;;;24.40;99.90;;;;;;4973138;28;20035;-52
2023/10/27 09:00:07;;;;;;;3.83;1.52;;;24.40;99.90;;;;;;4973282;28;20379;-52
2023/10/27 09:02:34;;;;;;;3.53;1.25;;;24.40;99.90;;;;;;4973109;28;20444;-52
2023/10/27 09:05:09;;;;;;;3.08;1.15;;;24.50;99.90;;;;;;4973249;28;20031;-51
2023/10/27 09:07:38;;;;;;;2.83;1.13;;;24.50;99.90;;;;;;4975053;28;20586;-51
2023/10/27 09:10:08;;;;;;;4.00;1.20;;;24.40;99.90;;;;;;4977252;28;20084;-51
2023/10/27 09:12:37;;;;;;;2.47;1.13;;;24.50;99.90;;;;;;4977221;28;20030;-51
2023/10/27 09:15:05;;;;;;;3.47;1.38;;;24.40;99.90;;;;;;4977287;28;20018;-51
2023/10/27 09:17:51;;;;;;;3.90;1.15;;;24.50;99.90;;;;;;4977150;28;20035;-51
2023/10/27 09:20:20;;;;;;;2.20;1.13;;;24.40;99.90;;;;;;4977093;28;20394;-52
2023/10/27 09:22:59;;;;;;;2.00;1.05;;;24.50;99.90;;;;;;4977243;28;20125;-51
2023/10/27 09:25:32;;;;;;;1.80;1.42;;;24.50;99.90;;;;;;4977198;28;20023;-51
2023/10/27 09:28:01;;;;;;;3.25;1.08;;;24.50;99.90;;;;;;4977059;28;20026;-52
2023/10/27 09:30:41;;;;;;;2.65;1.17;;;24.50;99.90;;;;;;4976838;28;20387;-52
2023/10/27 09:33:21;;;;;;;3.08;1.45;;;24.50;99.90;;;;;;4976920;28;20031;-51
2023/10/27 09:35:49;;;;;;;4.13;1.73;;;24.50;99.90;;;;;;4976916;28;20023;-52
2023/10/27 09:38:15;;;;;;;4.15;1.20;;;24.50;99.90;;;;;;4977127;28;20034;-52
2023/10/27 09:40:43;;;;;;;3.60;1.07;;;24.50;99.90;;;;;;4976837;28;20050;-52
2023/10/27 09:43:19;;;;;;;;;;;24.50;99.90;;;;;;4959922;28;20026;-51
2023/10/27 09:45:59;;;;;;;1.33;0.93;;;24.60;99.90;;;;;;4976647;28;19906;-52
2023/10/27 09:48:30;;;;;;;3.38;1.00;;;24.60;99.90;;;;;;4976657;28;20105;-52
2023/10/27 09:51:11;;;;;;;2.95;1.23;;;24.70;99.90;;;;;;4976637;28;20106;-52
2023/10/27 09:53:38;;;;;;;4.78;1.65;;;24.70;99.90;;;;;;4976580;28;20019;-51
2023/10/27 09:56:05;;;;;;;2.88;1.20;;;24.70;99.90;;;;;;4959185;28;20023;-52
2023/10/27 09:58:34;;;;;;;8.10;1.25;;;24.70;99.90;;;;;;4976425;28;20491;-51
2023/10/27 10:01:01;;;;;;;4.15;1.73;;;24.80;99.90;;;;;;4976209;28;20129;-51
2023/10/27 10:03:27;;;;;;;;;;;24.80;99.90;;;;;;4959372;28;20074;-51
2023/10/27 10:06:15;;;;;;;3.33;1.27;;;24.90;99.90;;;;;;4976156;28;19910;-52
2023/10/27 10:09:01;;;;;;;2.67;0.98;;;24.90;99.90;;;;;;4976123;28;20054;-52
2023/10/27 10:11:27;;;;;;;2.38;1.15;;;24.90;99.90;;;;;;4975874;28;20427;-52
2023/10/27 10:13:53;;;;;;;3.90;1.20;;;25.00;99.90;;;;;;4958944;28;20046;-51
2023/10/27 10:16:22;;;;;;;3.70;1.70;;;25.00;99.90;;;;;;4976104;28;20058;-52
2023/10/27 10:18:48;;;;;;;5.40;1.55;;;25.00;99.90;;;;;;4975380;28;20059;-52
2023/10/27 10:21:40;;;;;;;4.43;1.63;;;25.00;99.90;;;;;;4975809;28;20475;-52
2023/10/27 10:24:08;;;;;;;3.92;1.13;;;25.00;99.90;;;;;;4976310;28;20368;-52
2023/10/27 10:27:10;;;;;;;3.90;1.67;;;25.10;99.90;;;;;;4975977;28;20031;-52
2023/10/27 10:29:36;;;;;;;3.15;1.30;;;25.10;99.90;;;;;;4975914;28;20106;-52
2023/10/27 10:32:34;;;;;;;4.22;1.20;;;25.10;99.90;;;;;;4975891;28;20121;-52
2023/10/27 10:35:22;;;;;;;4.40;1.40;;;25.10;99.90;;;;;;4975734;28;20057;-51
2023/10/27 10:37:51;;;;;;;4.55;1.40;;;25.10;99.90;;;;;;4975777;28;20027;-51
2023/10/27 10:40:23;;;;;;;3.97;1.38;;;25.10;99.90;;;;;;4958542;28;20035;-51
2023/10/27 10:43:19;;;;;;;2.65;1.27;;;25.10;99.90;;;;;;4975888;28;20026;-51
2023/10/27 10:45:59;;;;;;;4.03;1.23;;;25.20;99.90;;;;;;4931450;28;20499;-52
2023/10/27 10:48:27;;;;;;;3.75;1.58;;;25.20;99.90;;;;;;4975352;28;20653;-52
2023/10/27 10:50:55;;;;;;;2.65;1.40;;;25.20;99.90;;;;;;4975317;28;20093;-52
2023/10/27 10:53:24;;;;;;;3.20;1.48;;;25.20;99.90;;;;;;4975543;28;20031;-52
2023/10/27 10:55:51;;;;;;;3.47;1.17;;;25.20;99.90;;;;;;4975630;28;20479;-52
2023/10/27 10:58:28;;;;;;;2.50;1.08;;;25.30;99.90;;;;;;4975643;28;20030;-52
2023/10/27 11:00:56;;;;;;;2.70;1.42;;;25.40;99.90;;;;;;4975234;28;20137;-52
2023/10/27 11:03:24;;;;;;;2.50;1.30;;;25.40;99.90;;;;;;4975118;28;20031;-52
2023/10/27 11:05:58;;;;;;;3.83;1.40;;;25.40;99.90;;;;;;4975001;28;20487;-52
2023/10/27 11:08:34;;;;;;;3.53;1.60;;;25.50;99.90;;;;;;4975009;28;20536;-53
2023/10/27 11:11:02;;;;;;;1.70;1.20;;;25.50;99.90;;;;;;4974854;28;20043;-52
2023/10/27 11:13:29;;;;;;;6.82;2.47;;;25.50;99.90;;;;;;4975205;28;20476;-52
2023/10/27 11:15:55;;;;;;;6.45;1.52;;;25.50;99.90;;;;;;4975049;28;20023;-52
2023/10/27 11:18:20;;;;;;;3.90;1.67;;;25.60;99.90;;;;;;4975210;28;20077;-52
2023/10/27 11:20:48;;;;;;;7.13;1.92;;;25.60;99.90;;;;;;4974955;28;20023;-52
2023/10/27 11:23:17;;;;;;;4.20;2.28;;;25.60;99.90;;;;;;4957783;28;20041;-54
2023/10/27 11:25:44;;;;;;;6.82;2.05;;;25.60;99.90;;;;;;4974753;28;20031;-53
2023/10/27 11:28:23;;;;;;;5.75;1.58;;;25.60;99.90;;;;;;4974788;28;20042;-53
2023/10/27 11:31:13;;;;;;;7.35;2.40;;;25.60;99.90;;;;;;4973721;28;20082;-52
2023/10/27 11:34:03;;;;;;;11.48;1.80;;;25.60;99.90;;;;;;4974884;28;20023;-52
2023/10/27 11:36:40;;;;;;;9.35;1.80;;;25.60;99.90;;;;;;4992027;28;20023;-53
2023/10/27 11:39:13;;;;;;;10.48;1.83;;;25.60;99.90;;;;;;4993556;28;20050;-52
2023/10/27 11:42:00;;;;;;;6.45;1.60;;;25.60;99.90;;;;;;4993122;28;20033;-52
2023/10/27 11:44:40;;;;;;;7.68;2.13;;;25.70;99.90;;;;;;4990713;28;20085;-53
2023/10/27 11:47:06;;;;;;;22.55;13.00;;;25.60;99.90;;;;;;4957064;28;20101;-53
2023/10/27 11:49:32;;;;;;;121.93;53.03;;;25.60;99.90;;;;;;4988584;28;20410;-53
2023/10/27 11:51:59;;;;;;;79.15;39.08;;;25.60;99.90;;;;;;4958889;28;20117;-52
2023/10/27 11:54:26;;;;;;;43.80;22.43;;;25.60;99.90;;;;;;4992665;28;20081;-52
2023/10/27 11:56:52;;;;;;;;;;;25.60;99.90;;;;;;4993011;28;20026;-52
2023/10/27 11:59:19;;;;;;;48.42;25.00;;;25.70;99.90;;;;;;4976291;28;19913;-53
2023/10/27 12:01:45;;;;;;;35.22;17.08;;;25.70;99.90;;;;;;4993586;28;20459;-53
2023/10/27 12:04:12;;;;;;;34.65;16.15;;;25.70;99.90;;;;;;4993631;28;20082;-54
2023/10/27 12:06:41;;;;;;;29.53;16.00;;;25.80;99.90;;;;;;4993580;28;20026;-53
2023/10/27 12:09:08;;;;;;;32.10;14.18;;;25.80;99.90;;;;;;4975237;28;20072;-54
2023/10/27 12:11:35;;;;;;;28.30;14.20;;;25.80;99.90;;;;;;4993377;28;20034;-53
2023/10/27 12:14:01;;;;;;;33.45;15.73;;;25.90;99.90;;;;;;4993345;28;20116;-53
2023/10/27 12:16:27;;;;;;;24.92;9.82;;;25.90;99.90;;;;;;4993486;28;20038;-52
2023/10/27 12:18:56;;;;;;;23.00;9.63;;;26.00;99.90;;;;;;4992514;28;20026;-53
2023/10/27 12:21:26;;;;;;;24.58;11.15;;;26.00;99.90;;;;;;4989725;28;20026;-53
2023/10/27 12:23:53;;;;;;;17.38;7.55;;;26.10;99.90;;;;;;4992509;28;20022;-54
2023/10/27 12:26:19;;;;;;;26.03;9.17;;;26.10;99.90;;;;;;4992555;28;20026;-53
2023/10/27 12:28:46;;;;;;;18.15;7.30;;;26.20;99.90;;;;;;4992704;28;20034;-54
2023/10/27 12:31:13;;;;;;;18.80;8.65;;;26.20;99.90;;;;;;4992281;28;20054;-54
2023/10/27 12:33:40;;;;;;;9.57;4.35;;;26.30;99.90;;;;;;4992406;28;20022;-53
2023/10/27 12:36:10;;;;;;;12.90;5.40;;;26.30;99.90;;;;;;4992220;28;20034;-53
2023/10/27 12:38:36;;;;;;;12.75;6.22;;;26.40;99.90;;;;;;4992050;28;20030;-53
2023/10/27 12:41:02;;;;;;;14.65;5.28;;;26.40;99.90;;;;;;4992380;28;20507;-54
2023/10/27 12:43:31;;;;;;;11.43;5.05;;;26.40;99.90;;;;;;4992456;28;20061;-53
2023/10/27 12:46:02;;;;;;;13.77;2.08;;;26.50;99.90;;;;;;4989498;28;20030;-51
2023/10/27 12:48:30;;;;;;;6.32;1.48;;;26.50;99.90;;;;;;4988444;28;20109;-51